Dati Storici

Data ora Umidita' aria (%) Temperatura aria (°C) Rad globale (W/m²) Gonioanemometro (°) Tacoanemometro (m/s) Pioggia (mm)
17-10-2012 08:40 87.9 % 11.434 31.148 11.711 0.618 0
17-10-2012 08:30 88.2 % 11.232 32.469 15.654 1.477 0
17-10-2012 08:20 89 % 11.143 23.876 321.648 0.778 0
17-10-2012 08:10 89.2 % 10.909 20.205 22.452 1.274 0
17-10-2012 08:00 89.7 % 10.76 21.061 11.986 0.599 0
17-10-2012 07:50 90.2 % 10.662 16.261 29.687 0.803 0
17-10-2012 07:40 90.7 % 10.536 11.83 353.787 0.275 0
17-10-2012 07:30 91.1 % 10.444 6.075 42.443 0.224 0
17-10-2012 07:20 91.7 % 10.375 5.278 22.523 0.895 0
17-10-2012 07:10 91.9 % 10.306 4.022 18.075 0.981 0
17-10-2012 07:00 92.3 % 10.258 3.932 109.169 0.222 0
17-10-2012 06:50 92.6 % 10.155 4.048 18.651 0.367 0
17-10-2012 06:40 92.9 % 10.046 4.099 131.063 0.181 0
17-10-2012 06:30 93.1 % 9.927 3.843 355.922 0.581 0
17-10-2012 06:20 93.2 % 9.898 2.901 25.572 2.094 0
17-10-2012 06:10 93.2 % 9.989 2.67 35.214 1.13 0
17-10-2012 06:00 93 % 9.928 2.568 36.682 0.471 0
17-10-2012 05:50 93.2 % 10.024 2.592 1.323 0.683 0
17-10-2012 05:40 93.1 % 10.003 2.579 347.824 0.365 0
17-10-2012 05:30 92.7 % 9.904 2.297 272.412 0.539 0

I dati sono presentati in modo automatico a scopo informativo. In seguito a verifica i dati possono subire modifiche o essere invalidati e non riportati negli archivi definitivi.